sensor_id;sensor_type;location;lat;lon;timestamp;P1;durP1;ratioP1;P2;durP2;ratioP2
24650;SDS011;12783;48.824;8.662;2023-03-31T00:02:00;8.35;;;1.65;;
24650;SDS011;12783;48.824;8.662;2023-03-31T00:04:28;8.95;;;1.50;;
24650;SDS011;12783;48.824;8.662;2023-03-31T00:06:57;9.25;;;1.73;;
24650;SDS011;12783;48.824;8.662;2023-03-31T00:09:24;5.18;;;1.40;;
24650;SDS011;12783;48.824;8.662;2023-03-31T00:11:51;6.93;;;1.67;;
24650;SDS011;12783;48.824;8.662;2023-03-31T00:14:19;10.95;;;1.80;;
24650;SDS011;12783;48.824;8.662;2023-03-31T00:16:46;9.20;;;1.90;;
24650;SDS011;12783;48.824;8.662;2023-03-31T00:19:13;7.07;;;1.40;;
24650;SDS011;12783;48.824;8.662;2023-03-31T00:21:44;7.88;;;2.33;;
24650;SDS011;12783;48.824;8.662;2023-03-31T00:24:11;6.78;;;1.67;;
24650;SDS011;12783;48.824;8.662;2023-03-31T00:26:38;8.50;;;1.70;;
24650;SDS011;12783;48.824;8.662;2023-03-31T00:29:06;7.38;;;1.20;;
24650;SDS011;12783;48.824;8.662;2023-03-31T00:31:33;5.72;;;1.75;;
24650;SDS011;12783;48.824;8.662;2023-03-31T00:34:01;4.18;;;1.20;;
24650;SDS011;12783;48.824;8.662;2023-03-31T00:36:28;7.57;;;1.67;;
24650;SDS011;12783;48.824;8.662;2023-03-31T00:38:56;5.65;;;1.77;;
24650;SDS011;12783;48.824;8.662;2023-03-31T00:41:25;7.40;;;1.52;;
24650;SDS011;12783;48.824;8.662;2023-03-31T00:49:20;11.05;;;2.13;;
24650;SDS011;12783;48.824;8.662;2023-03-31T00:51:54;4.50;;;1.48;;
24650;SDS011;12783;48.824;8.662;2023-03-31T00:54:23;8.68;;;1.48;;
24650;SDS011;12783;48.824;8.662;2023-03-31T00:56:52;9.43;;;1.88;;
24650;SDS011;12783;48.824;8.662;2023-03-31T00:59:21;9.30;;;1.85;;
24650;SDS011;12783;48.824;8.662;2023-03-31T01:01:52;10.50;;;1.77;;
24650;SDS011;12783;48.824;8.662;2023-03-31T01:04:19;5.70;;;1.67;;
24650;SDS011;12783;48.824;8.662;2023-03-31T01:07:02;8.80;;;2.10;;
24650;SDS011;12783;48.824;8.662;2023-03-31T01:09:35;5.85;;;1.63;;
24650;SDS011;12783;48.824;8.662;2023-03-31T01:12:05;11.60;;;2.05;;
24650;SDS011;12783;48.824;8.662;2023-03-31T01:14:33;6.47;;;1.70;;
24650;SDS011;12783;48.824;8.662;2023-03-31T01:17:00;7.93;;;1.88;;
24650;SDS011;12783;48.824;8.662;2023-03-31T01:19:34;6.35;;;1.95;;
24650;SDS011;12783;48.824;8.662;2023-03-31T01:25:25;8.73;;;1.92;;
24650;SDS011;12783;48.824;8.662;2023-03-31T01:28:10;10.23;;;1.80;;
24650;SDS011;12783;48.824;8.662;2023-03-31T01:33:32;12.90;;;2.08;;
24650;SDS011;12783;48.824;8.662;2023-03-31T01:44:00;8.85;;;1.55;;
24650;SDS011;12783;48.824;8.662;2023-03-31T01:46:34;4.43;;;1.27;;
24650;SDS011;12783;48.824;8.662;2023-03-31T01:51:51;4.40;;;1.30;;
24650;SDS011;12783;48.824;8.662;2023-03-31T01:57:52;7.13;;;1.40;;
24650;SDS011;12783;48.824;8.662;2023-03-31T02:00:24;4.75;;;1.38;;
24650;SDS011;12783;48.824;8.662;2023-03-31T02:05:29;6.15;;;1.70;;
24650;SDS011;12783;48.824;8.662;2023-03-31T02:10:34;7.97;;;1.65;;
24650;SDS011;12783;48.824;8.662;2023-03-31T02:13:01;4.20;;;1.45;;
24650;SDS011;12783;48.824;8.662;2023-03-31T02:15:30;3.22;;;1.52;;
24650;SDS011;12783;48.824;8.662;2023-03-31T02:18:03;4.85;;;1.50;;
24650;SDS011;12783;48.824;8.662;2023-03-31T02:20:37;4.60;;;1.80;;
24650;SDS011;12783;48.824;8.662;2023-03-31T02:23:07;5.95;;;1.55;;
24650;SDS011;12783;48.824;8.662;2023-03-31T02:25:37;5.00;;;1.67;;
24650;SDS011;12783;48.824;8.662;2023-03-31T02:28:32;4.82;;;1.60;;
24650;SDS011;12783;48.824;8.662;2023-03-31T02:33:45;10.38;;;2.20;;
24650;SDS011;12783;48.824;8.662;2023-03-31T02:36:13;7.38;;;1.67;;
24650;SDS011;12783;48.824;8.662;2023-03-31T02:38:45;5.05;;;1.80;;
24650;SDS011;12783;48.824;8.662;2023-03-31T02:41:15;3.80;;;1.88;;
24650;SDS011;12783;48.824;8.662;2023-03-31T02:43:42;7.10;;;1.88;;
24650;SDS011;12783;48.824;8.662;2023-03-31T02:46:09;4.63;;;1.80;;
24650;SDS011;12783;48.824;8.662;2023-03-31T02:48:38;5.32;;;1.95;;
24650;SDS011;12783;48.824;8.662;2023-03-31T02:59:43;5.25;;;2.00;;
24650;SDS011;12783;48.824;8.662;2023-03-31T03:10:33;4.50;;;2.20;;
24650;SDS011;12783;48.824;8.662;2023-03-31T03:13:25;6.75;;;1.98;;
24650;SDS011;12783;48.824;8.662;2023-03-31T03:16:14;5.88;;;2.22;;
24650;SDS011;12783;48.824;8.662;2023-03-31T03:19:01;3.87;;;2.07;;
24650;SDS011;12783;48.824;8.662;2023-03-31T03:21:30;7.20;;;2.40;;
24650;SDS011;12783;48.824;8.662;2023-03-31T03:23:57;7.88;;;2.25;;
24650;SDS011;12783;48.824;8.662;2023-03-31T03:26:25;7.00;;;2.25;;
24650;SDS011;12783;48.824;8.662;2023-03-31T03:28:53;6.93;;;2.50;;
24650;SDS011;12783;48.824;8.662;2023-03-31T03:31:22;7.63;;;2.22;;
24650;SDS011;12783;48.824;8.662;2023-03-31T03:33:49;7.95;;;2.53;;
24650;SDS011;12783;48.824;8.662;2023-03-31T03:36:16;5.78;;;2.63;;
24650;SDS011;12783;48.824;8.662;2023-03-31T03:38:43;6.68;;;2.42;;
24650;SDS011;12783;48.824;8.662;2023-03-31T03:41:10;11.20;;;3.30;;
24650;SDS011;12783;48.824;8.662;2023-03-31T03:43:37;12.13;;;3.20;;
24650;SDS011;12783;48.824;8.662;2023-03-31T03:46:03;10.77;;;2.50;;
24650;SDS011;12783;48.824;8.662;2023-03-31T03:48:31;5.25;;;2.67;;
24650;SDS011;12783;48.824;8.662;2023-03-31T03:50:59;6.68;;;2.72;;
24650;SDS011;12783;48.824;8.662;2023-03-31T03:53:26;5.47;;;2.58;;
24650;SDS011;12783;48.824;8.662;2023-03-31T03:55:53;7.90;;;2.88;;
24650;SDS011;12783;48.824;8.662;2023-03-31T03:58:20;4.93;;;2.70;;
24650;SDS011;12783;48.824;8.662;2023-03-31T04:00:46;7.05;;;2.47;;
24650;SDS011;12783;48.824;8.662;2023-03-31T04:03:13;6.32;;;2.72;;
24650;SDS011;12783;48.824;8.662;2023-03-31T04:05:40;7.97;;;2.80;;
24650;SDS011;12783;48.824;8.662;2023-03-31T04:08:07;5.63;;;2.63;;
24650;SDS011;12783;48.824;8.662;2023-03-31T04:10:34;7.32;;;3.10;;
24650;SDS011;12783;48.824;8.662;2023-03-31T04:13:01;11.07;;;3.42;;
24650;SDS011;12783;48.824;8.662;2023-03-31T04:15:28;5.88;;;3.28;;
24650;SDS011;12783;48.824;8.662;2023-03-31T04:17:55;8.40;;;3.35;;
24650;SDS011;12783;48.824;8.662;2023-03-31T04:20:23;10.77;;;3.20;;
24650;SDS011;12783;48.824;8.662;2023-03-31T04:22:55;8.88;;;3.08;;
24650;SDS011;12783;48.824;8.662;2023-03-31T04:25:22;9.20;;;3.55;;
24650;SDS011;12783;48.824;8.662;2023-03-31T04:27:49;9.98;;;3.38;;
24650;SDS011;12783;48.824;8.662;2023-03-31T04:30:23;8.90;;;3.42;;
24650;SDS011;12783;48.824;8.662;2023-03-31T04:33:01;9.88;;;3.22;;
24650;SDS011;12783;48.824;8.662;2023-03-31T04:35:29;9.10;;;3.45;;
24650;SDS011;12783;48.824;8.662;2023-03-31T04:38:15;10.40;;;3.53;;
24650;SDS011;12783;48.824;8.662;2023-03-31T04:40:47;12.63;;;3.50;;
24650;SDS011;12783;48.824;8.662;2023-03-31T04:43:15;11.65;;;3.78;;
24650;SDS011;12783;48.824;8.662;2023-03-31T04:45:43;10.70;;;3.65;;
24650;SDS011;12783;48.824;8.662;2023-03-31T04:48:10;16.00;;;4.07;;
24650;SDS011;12783;48.824;8.662;2023-03-31T04:50:36;10.75;;;3.88;;
24650;SDS011;12783;48.824;8.662;2023-03-31T04:53:04;15.23;;;3.78;;
24650;SDS011;12783;48.824;8.662;2023-03-31T04:55:31;8.05;;;3.75;;
24650;SDS011;12783;48.824;8.662;2023-03-31T04:57:58;8.10;;;3.78;;
24650;SDS011;12783;48.824;8.662;2023-03-31T05:00:25;10.30;;;4.20;;
24650;SDS011;12783;48.824;8.662;2023-03-31T05:02:52;9.68;;;3.90;;
24650;SDS011;12783;48.824;8.662;2023-03-31T05:05:19;13.95;;;4.30;;
24650;SDS011;12783;48.824;8.662;2023-03-31T05:07:46;15.43;;;4.22;;
24650;SDS011;12783;48.824;8.662;2023-03-31T05:10:13;12.75;;;4.57;;
24650;SDS011;12783;48.824;8.662;2023-03-31T05:12:40;22.85;;;4.85;;
24650;SDS011;12783;48.824;8.662;2023-03-31T05:15:07;12.63;;;4.43;;
24650;SDS011;12783;48.824;8.662;2023-03-31T05:17:34;11.15;;;4.20;;
24650;SDS011;12783;48.824;8.662;2023-03-31T05:20:01;14.38;;;4.10;;
24650;SDS011;12783;48.824;8.662;2023-03-31T05:22:35;13.93;;;4.28;;
24650;SDS011;12783;48.824;8.662;2023-03-31T05:25:03;15.02;;;4.30;;
24650;SDS011;12783;48.824;8.662;2023-03-31T05:27:32;11.05;;;4.88;;
24650;SDS011;12783;48.824;8.662;2023-03-31T05:30:00;13.57;;;4.82;;
24650;SDS011;12783;48.824;8.662;2023-03-31T05:32:27;8.75;;;4.35;;
24650;SDS011;12783;48.824;8.662;2023-03-31T05:34:54;13.82;;;4.60;;
24650;SDS011;12783;48.824;8.662;2023-03-31T05:37:24;12.30;;;4.45;;
24650;SDS011;12783;48.824;8.662;2023-03-31T05:39:51;12.43;;;4.70;;
24650;SDS011;12783;48.824;8.662;2023-03-31T05:42:18;8.43;;;4.57;;
24650;SDS011;12783;48.824;8.662;2023-03-31T05:44:46;16.38;;;4.63;;
24650;SDS011;12783;48.824;8.662;2023-03-31T05:47:13;11.60;;;4.72;;
24650;SDS011;12783;48.824;8.662;2023-03-31T05:49:40;10.52;;;4.68;;
24650;SDS011;12783;48.824;8.662;2023-03-31T05:52:07;12.50;;;4.75;;
24650;SDS011;12783;48.824;8.662;2023-03-31T05:54:34;11.90;;;4.75;;
24650;SDS011;12783;48.824;8.662;2023-03-31T05:57:01;10.07;;;4.93;;
24650;SDS011;12783;48.824;8.662;2023-03-31T05:59:28;11.60;;;4.65;;
24650;SDS011;12783;48.824;8.662;2023-03-31T06:01:56;11.98;;;4.75;;
24650;SDS011;12783;48.824;8.662;2023-03-31T06:04:23;14.02;;;4.63;;
24650;SDS011;12783;48.824;8.662;2023-03-31T06:06:50;11.98;;;4.75;;
24650;SDS011;12783;48.824;8.662;2023-03-31T06:09:17;12.35;;;4.63;;
24650;SDS011;12783;48.824;8.662;2023-03-31T06:11:43;12.18;;;4.97;;
24650;SDS011;12783;48.824;8.662;2023-03-31T06:14:11;17.23;;;4.38;;
24650;SDS011;12783;48.824;8.662;2023-03-31T06:16:38;9.70;;;4.30;;
24650;SDS011;12783;48.824;8.662;2023-03-31T06:19:04;18.20;;;4.68;;
24650;SDS011;12783;48.824;8.662;2023-03-31T06:21:33;13.63;;;4.80;;
24650;SDS011;12783;48.824;8.662;2023-03-31T06:24:00;12.75;;;4.97;;
24650;SDS011;12783;48.824;8.662;2023-03-31T06:26:26;9.75;;;4.28;;
24650;SDS011;12783;48.824;8.662;2023-03-31T06:28:53;8.40;;;3.90;;
24650;SDS011;12783;48.824;8.662;2023-03-31T06:31:21;10.15;;;4.15;;
24650;SDS011;12783;48.824;8.662;2023-03-31T06:33:49;13.68;;;4.68;;
24650;SDS011;12783;48.824;8.662;2023-03-31T06:36:17;12.50;;;5.70;;
24650;SDS011;12783;48.824;8.662;2023-03-31T06:38:45;12.50;;;5.05;;
24650;SDS011;12783;48.824;8.662;2023-03-31T06:41:14;10.30;;;4.90;;
24650;SDS011;12783;48.824;8.662;2023-03-31T06:43:41;12.38;;;4.20;;
24650;SDS011;12783;48.824;8.662;2023-03-31T06:46:08;7.97;;;3.53;;
24650;SDS011;12783;48.824;8.662;2023-03-31T06:48:36;5.18;;;2.80;;
24650;SDS011;12783;48.824;8.662;2023-03-31T06:51:03;3.45;;;2.13;;
24650;SDS011;12783;48.824;8.662;2023-03-31T06:53:31;4.85;;;1.70;;
24650;SDS011;12783;48.824;8.662;2023-03-31T06:55:59;4.43;;;1.88;;
24650;SDS011;12783;48.824;8.662;2023-03-31T06:58:26;4.35;;;1.73;;
24650;SDS011;12783;48.824;8.662;2023-03-31T07:00:56;4.53;;;1.38;;
24650;SDS011;12783;48.824;8.662;2023-03-31T07:03:24;2.55;;;1.20;;
24650;SDS011;12783;48.824;8.662;2023-03-31T07:05:51;3.72;;;1.17;;
24650;SDS011;12783;48.824;8.662;2023-03-31T07:08:19;4.72;;;1.20;;
24650;SDS011;12783;48.824;8.662;2023-03-31T07:10:47;3.30;;;1.10;;
24650;SDS011;12783;48.824;8.662;2023-03-31T07:13:15;4.75;;;1.13;;
24650;SDS011;12783;48.824;8.662;2023-03-31T07:15:43;1.92;;;1.20;;
24650;SDS011;12783;48.824;8.662;2023-03-31T07:18:13;2.45;;;1.38;;
24650;SDS011;12783;48.824;8.662;2023-03-31T07:20:41;3.65;;;1.10;;
24650;SDS011;12783;48.824;8.662;2023-03-31T07:23:08;1.83;;;1.10;;
24650;SDS011;12783;48.824;8.662;2023-03-31T07:25:35;2.78;;;1.20;;
24650;SDS011;12783;48.824;8.662;2023-03-31T07:28:02;1.48;;;1.23;;
24650;SDS011;12783;48.824;8.662;2023-03-31T07:30:29;2.45;;;1.20;;
24650;SDS011;12783;48.824;8.662;2023-03-31T07:32:56;2.35;;;1.30;;
24650;SDS011;12783;48.824;8.662;2023-03-31T07:35:23;3.67;;;1.35;;
24650;SDS011;12783;48.824;8.662;2023-03-31T07:37:50;2.38;;;1.30;;
24650;SDS011;12783;48.824;8.662;2023-03-31T07:40:18;4.38;;;1.70;;
24650;SDS011;12783;48.824;8.662;2023-03-31T07:42:47;7.07;;;1.45;;
24650;SDS011;12783;48.824;8.662;2023-03-31T07:45:15;6.57;;;1.55;;
24650;SDS011;12783;48.824;8.662;2023-03-31T07:47:42;4.78;;;1.55;;
24650;SDS011;12783;48.824;8.662;2023-03-31T07:50:12;4.28;;;1.33;;
24650;SDS011;12783;48.824;8.662;2023-03-31T07:52:40;10.60;;;1.70;;
24650;SDS011;12783;48.824;8.662;2023-03-31T07:55:10;8.13;;;1.77;;
24650;SDS011;12783;48.824;8.662;2023-03-31T07:57:38;7.15;;;1.40;;
24650;SDS011;12783;48.824;8.662;2023-03-31T08:00:06;3.10;;;1.38;;
24650;SDS011;12783;48.824;8.662;2023-03-31T08:02:35;8.70;;;1.55;;
24650;SDS011;12783;48.824;8.662;2023-03-31T08:05:04;6.32;;;1.65;;
24650;SDS011;12783;48.824;8.662;2023-03-31T08:07:33;6.40;;;1.58;;
24650;SDS011;12783;48.824;8.662;2023-03-31T08:10:02;5.60;;;1.65;;
24650;SDS011;12783;48.824;8.662;2023-03-31T08:12:30;6.78;;;1.63;;
24650;SDS011;12783;48.824;8.662;2023-03-31T08:14:57;7.60;;;1.80;;
24650;SDS011;12783;48.824;8.662;2023-03-31T08:17:23;6.82;;;1.90;;
24650;SDS011;12783;48.824;8.662;2023-03-31T08:19:51;6.90;;;1.88;;
24650;SDS011;12783;48.824;8.662;2023-03-31T08:22:19;6.10;;;1.90;;
24650;SDS011;12783;48.824;8.662;2023-03-31T08:24:48;13.30;;;1.95;;
24650;SDS011;12783;48.824;8.662;2023-03-31T08:27:15;12.50;;;5.25;;
24650;SDS011;12783;48.824;8.662;2023-03-31T08:29:42;8.90;;;2.78;;
24650;SDS011;12783;48.824;8.662;2023-03-31T08:32:08;7.00;;;2.17;;
24650;SDS011;12783;48.824;8.662;2023-03-31T08:34:35;12.20;;;2.17;;
24650;SDS011;12783;48.824;8.662;2023-03-31T08:37:03;6.50;;;1.98;;
24650;SDS011;12783;48.824;8.662;2023-03-31T08:39:31;6.55;;;1.65;;
24650;SDS011;12783;48.824;8.662;2023-03-31T08:42:12;8.45;;;1.88;;
24650;SDS011;12783;48.824;8.662;2023-03-31T08:44:54;6.53;;;1.40;;
24650;SDS011;12783;48.824;8.662;2023-03-31T08:47:25;4.80;;;1.35;;
24650;SDS011;12783;48.824;8.662;2023-03-31T08:49:55;6.93;;;1.65;;
24650;SDS011;12783;48.824;8.662;2023-03-31T08:52:33;5.13;;;1.60;;
24650;SDS011;12783;48.824;8.662;2023-03-31T08:55:42;5.10;;;1.63;;
24650;SDS011;12783;48.824;8.662;2023-03-31T09:06:38;5.78;;;1.40;;
24650;SDS011;12783;48.824;8.662;2023-03-31T09:09:16;5.00;;;1.45;;
24650;SDS011;12783;48.824;8.662;2023-03-31T09:11:53;10.00;;;1.63;;
24650;SDS011;12783;48.824;8.662;2023-03-31T09:14:24;5.93;;;1.45;;
24650;SDS011;12783;48.824;8.662;2023-03-31T09:17:40;6.45;;;1.42;;
24650;SDS011;12783;48.824;8.662;2023-03-31T09:19:54;7.50;;;1.70;;
24650;SDS011;12783;48.824;8.662;2023-03-31T09:22:25;11.43;;;1.80;;
24650;SDS011;12783;48.824;8.662;2023-03-31T09:25:00;8.38;;;1.95;;
24650;SDS011;12783;48.824;8.662;2023-03-31T09:27:29;8.05;;;1.63;;
24650;SDS011;12783;48.824;8.662;2023-03-31T09:29:58;6.25;;;2.00;;
24650;SDS011;12783;48.824;8.662;2023-03-31T09:32:36;10.38;;;1.98;;
24650;SDS011;12783;48.824;8.662;2023-03-31T09:35:23;9.27;;;2.45;;
24650;SDS011;12783;48.824;8.662;2023-03-31T09:37:51;13.48;;;2.67;;
24650;SDS011;12783;48.824;8.662;2023-03-31T09:40:19;9.30;;;1.77;;
24650;SDS011;12783;48.824;8.662;2023-03-31T09:42:50;10.10;;;2.10;;
24650;SDS011;12783;48.824;8.662;2023-03-31T09:45:22;10.83;;;2.13;;
24650;SDS011;12783;48.824;8.662;2023-03-31T09:47:50;9.63;;;2.15;;
24650;SDS011;12783;48.824;8.662;2023-03-31T09:50:18;8.77;;;2.17;;
24650;SDS011;12783;48.824;8.662;2023-03-31T09:52:56;9.35;;;1.95;;
24650;SDS011;12783;48.824;8.662;2023-03-31T09:55:31;13.27;;;2.40;;
24650;SDS011;12783;48.824;8.662;2023-03-31T09:58:11;11.15;;;2.50;;
24650;SDS011;12783;48.824;8.662;2023-03-31T10:00:39;7.10;;;1.77;;
24650;SDS011;12783;48.824;8.662;2023-03-31T10:03:09;10.85;;;2.42;;
24650;SDS011;12783;48.824;8.662;2023-03-31T10:05:39;10.10;;;1.92;;
24650;SDS011;12783;48.824;8.662;2023-03-31T10:10:46;8.27;;;1.88;;
24650;SDS011;12783;48.824;8.662;2023-03-31T10:13:25;10.00;;;1.90;;
24650;SDS011;12783;48.824;8.662;2023-03-31T10:16:00;6.25;;;1.58;;
24650;SDS011;12783;48.824;8.662;2023-03-31T10:18:33;7.47;;;1.58;;
24650;SDS011;12783;48.824;8.662;2023-03-31T10:21:02;10.25;;;1.90;;
24650;SDS011;12783;48.824;8.662;2023-03-31T10:23:32;10.20;;;2.00;;
24650;SDS011;12783;48.824;8.662;2023-03-31T10:26:00;11.48;;;1.85;;
24650;SDS011;12783;48.824;8.662;2023-03-31T10:28:29;8.27;;;1.75;;
24650;SDS011;12783;48.824;8.662;2023-03-31T10:30:58;6.78;;;1.45;;
24650;SDS011;12783;48.824;8.662;2023-03-31T10:33:30;6.78;;;1.25;;
24650;SDS011;12783;48.824;8.662;2023-03-31T10:36:01;6.78;;;1.60;;
24650;SDS011;12783;48.824;8.662;2023-03-31T10:38:37;8.48;;;1.70;;
24650;SDS011;12783;48.824;8.662;2023-03-31T10:41:05;9.43;;;1.95;;
24650;SDS011;12783;48.824;8.662;2023-03-31T10:43:38;9.52;;;2.28;;
24650;SDS011;12783;48.824;8.662;2023-03-31T10:46:09;8.48;;;1.58;;
24650;SDS011;12783;48.824;8.662;2023-03-31T10:48:38;6.93;;;1.40;;
24650;SDS011;12783;48.824;8.662;2023-03-31T10:51:10;7.55;;;1.67;;
24650;SDS011;12783;48.824;8.662;2023-03-31T10:53:40;9.30;;;1.77;;
24650;SDS011;12783;48.824;8.662;2023-03-31T10:56:31;9.80;;;1.80;;
24650;SDS011;12783;48.824;8.662;2023-03-31T10:59:11;3.80;;;0.90;;
24650;SDS011;12783;48.824;8.662;2023-03-31T11:05:10;3.47;;;0.50;;
24650;SDS011;12783;48.824;8.662;2023-03-31T11:24:49;1.52;;;0.90;;
24650;SDS011;12783;48.824;8.662;2023-03-31T11:27:46;3.30;;;0.60;;
24650;SDS011;12783;48.824;8.662;2023-03-31T11:30:36;3.45;;;0.82;;
24650;SDS011;12783;48.824;8.662;2023-03-31T11:33:24;2.92;;;0.88;;
24650;SDS011;12783;48.824;8.662;2023-03-31T11:36:12;1.65;;;0.50;;
24650;SDS011;12783;48.824;8.662;2023-03-31T11:42:33;1.38;;;0.40;;
24650;SDS011;12783;48.824;8.662;2023-03-31T11:45:40;1.00;;;0.30;;
24650;SDS011;12783;48.824;8.662;2023-03-31T11:48:01;5.30;;;0.70;;
24650;SDS011;12783;48.824;8.662;2023-03-31T11:50:33;2.80;;;0.82;;
24650;SDS011;12783;48.824;8.662;2023-03-31T11:53:19;3.83;;;1.25;;
24650;SDS011;12783;48.824;8.662;2023-03-31T11:55:51;4.20;;;1.00;;
24650;SDS011;12783;48.824;8.662;2023-03-31T11:58:26;6.82;;;1.20;;
24650;SDS011;12783;48.824;8.662;2023-03-31T12:01:02;3.97;;;0.98;;
24650;SDS011;12783;48.824;8.662;2023-03-31T12:06:48;3.72;;;0.75;;
24650;SDS011;12783;48.824;8.662;2023-03-31T12:09:21;4.30;;;0.75;;
24650;SDS011;12783;48.824;8.662;2023-03-31T12:12:08;5.53;;;1.20;;
24650;SDS011;12783;48.824;8.662;2023-03-31T12:14:52;7.00;;;1.15;;
24650;SDS011;12783;48.824;8.662;2023-03-31T12:19:59;8.88;;;0.95;;
24650;SDS011;12783;48.824;8.662;2023-03-31T12:22:40;2.72;;;0.75;;
24650;SDS011;12783;48.824;8.662;2023-03-31T12:25:14;4.07;;;0.87;;
24650;SDS011;12783;48.824;8.662;2023-03-31T12:27:42;5.28;;;1.10;;
24650;SDS011;12783;48.824;8.662;2023-03-31T12:30:34;6.60;;;1.00;;
24650;SDS011;12783;48.824;8.662;2023-03-31T12:44:28;6.03;;;1.35;;
24650;SDS011;12783;48.824;8.662;2023-03-31T12:49:50;12.55;;;1.33;;
24650;SDS011;12783;48.824;8.662;2023-03-31T12:55:47;7.03;;;1.20;;
24650;SDS011;12783;48.824;8.662;2023-03-31T13:06:01;3.97;;;0.95;;
24650;SDS011;12783;48.824;8.662;2023-03-31T13:11:15;3.28;;;0.70;;
24650;SDS011;12783;48.824;8.662;2023-03-31T13:13:51;4.10;;;0.90;;
24650;SDS011;12783;48.824;8.662;2023-03-31T13:16:26;3.88;;;0.85;;
24650;SDS011;12783;48.824;8.662;2023-03-31T13:18:54;2.33;;;0.70;;
24650;SDS011;12783;48.824;8.662;2023-03-31T13:21:22;3.97;;;1.13;;
24650;SDS011;12783;48.824;8.662;2023-03-31T13:23:49;2.80;;;0.77;;
24650;SDS011;12783;48.824;8.662;2023-03-31T13:34:36;1.70;;;0.95;;
24650;SDS011;12783;48.824;8.662;2023-03-31T13:40:24;3.75;;;1.08;;
24650;SDS011;12783;48.824;8.662;2023-03-31T13:43:07;5.60;;;1.20;;
24650;SDS011;12783;48.824;8.662;2023-03-31T14:08:09;3.45;;;1.10;;
24650;SDS011;12783;48.824;8.662;2023-03-31T14:10:42;6.97;;;1.40;;
24650;SDS011;12783;48.824;8.662;2023-03-31T14:15:56;7.07;;;1.50;;
24650;SDS011;12783;48.824;8.662;2023-03-31T14:18:25;6.47;;;1.02;;
24650;SDS011;12783;48.824;8.662;2023-03-31T14:21:39;4.63;;;1.00;;
24650;SDS011;12783;48.824;8.662;2023-03-31T14:29:18;3.28;;;0.75;;
24650;SDS011;12783;48.824;8.662;2023-03-31T14:32:00;4.05;;;1.08;;
24650;SDS011;12783;48.824;8.662;2023-03-31T14:35:16;2.67;;;0.80;;
24650;SDS011;12783;48.824;8.662;2023-03-31T14:37:52;1.45;;;0.55;;
24650;SDS011;12783;48.824;8.662;2023-03-31T14:40:20;3.95;;;0.65;;
24650;SDS011;12783;48.824;8.662;2023-03-31T14:42:47;2.03;;;0.50;;
24650;SDS011;12783;48.824;8.662;2023-03-31T14:45:21;2.88;;;0.73;;
24650;SDS011;12783;48.824;8.662;2023-03-31T14:47:54;2.15;;;0.60;;
24650;SDS011;12783;48.824;8.662;2023-03-31T14:50:27;2.47;;;0.75;;
24650;SDS011;12783;48.824;8.662;2023-03-31T14:52:56;0.57;;;0.30;;
24650;SDS011;12783;48.824;8.662;2023-03-31T14:55:25;2.75;;;0.80;;
24650;SDS011;12783;48.824;8.662;2023-03-31T14:58:04;4.63;;;1.05;;
24650;SDS011;12783;48.824;8.662;2023-03-31T15:00:31;2.50;;;0.70;;
24650;SDS011;12783;48.824;8.662;2023-03-31T15:02:59;4.10;;;0.90;;
24650;SDS011;12783;48.824;8.662;2023-03-31T15:05:30;5.00;;;0.65;;
24650;SDS011;12783;48.824;8.662;2023-03-31T15:08:02;1.67;;;0.57;;
24650;SDS011;12783;48.824;8.662;2023-03-31T15:10:32;3.38;;;0.68;;
24650;SDS011;12783;48.824;8.662;2023-03-31T15:13:09;3.47;;;0.70;;
24650;SDS011;12783;48.824;8.662;2023-03-31T15:15:44;3.75;;;0.75;;
24650;SDS011;12783;48.824;8.662;2023-03-31T15:18:11;2.13;;;0.65;;
24650;SDS011;12783;48.824;8.662;2023-03-31T15:20:39;4.95;;;1.02;;
24650;SDS011;12783;48.824;8.662;2023-03-31T15:23:23;6.00;;;2.00;;
24650;SDS011;12783;48.824;8.662;2023-03-31T15:28:32;4.10;;;1.33;;
24650;SDS011;12783;48.824;8.662;2023-03-31T15:31:04;3.35;;;1.10;;
24650;SDS011;12783;48.824;8.662;2023-03-31T15:33:36;2.70;;;0.93;;
24650;SDS011;12783;48.824;8.662;2023-03-31T15:36:07;6.20;;;1.10;;
24650;SDS011;12783;48.824;8.662;2023-03-31T15:38:35;4.35;;;1.20;;
24650;SDS011;12783;48.824;8.662;2023-03-31T15:41:02;2.60;;;0.70;;
24650;SDS011;12783;48.824;8.662;2023-03-31T15:43:30;3.97;;;0.88;;
24650;SDS011;12783;48.824;8.662;2023-03-31T15:45:59;4.25;;;0.90;;
24650;SDS011;12783;48.824;8.662;2023-03-31T15:48:34;7.22;;;1.50;;
24650;SDS011;12783;48.824;8.662;2023-03-31T15:53:51;5.50;;;1.13;;
24650;SDS011;12783;48.824;8.662;2023-03-31T15:56:29;5.95;;;1.17;;
24650;SDS011;12783;48.824;8.662;2023-03-31T16:02:15;4.97;;;1.20;;
24650;SDS011;12783;48.824;8.662;2023-03-31T16:05:01;5.78;;;1.83;;
24650;SDS011;12783;48.824;8.662;2023-03-31T16:07:35;5.05;;;1.08;;
24650;SDS011;12783;48.824;8.662;2023-03-31T16:10:07;2.47;;;0.50;;
24650;SDS011;12783;48.824;8.662;2023-03-31T16:12:41;1.35;;;0.68;;
24650;SDS011;12783;48.824;8.662;2023-03-31T16:15:27;1.75;;;0.30;;
24650;SDS011;12783;48.824;8.662;2023-03-31T16:17:57;2.90;;;1.83;;
24650;SDS011;12783;48.824;8.662;2023-03-31T16:20:28;0.77;;;0.40;;
24650;SDS011;12783;48.824;8.662;2023-03-31T16:22:58;1.00;;;0.55;;
24650;SDS011;12783;48.824;8.662;2023-03-31T16:25:26;0.70;;;0.60;;
24650;SDS011;12783;48.824;8.662;2023-03-31T16:27:56;2.88;;;1.00;;
24650;SDS011;12783;48.824;8.662;2023-03-31T16:30:38;3.95;;;1.30;;
24650;SDS011;12783;48.824;8.662;2023-03-31T16:33:07;3.10;;;1.48;;
24650;SDS011;12783;48.824;8.662;2023-03-31T16:35:53;5.55;;;1.48;;
24650;SDS011;12783;48.824;8.662;2023-03-31T16:38:24;5.70;;;1.42;;
24650;SDS011;12783;48.824;8.662;2023-03-31T16:40:53;4.40;;;1.40;;
24650;SDS011;12783;48.824;8.662;2023-03-31T16:43:22;7.20;;;1.58;;
24650;SDS011;12783;48.824;8.662;2023-03-31T16:45:50;3.50;;;0.90;;
24650;SDS011;12783;48.824;8.662;2023-03-31T16:48:22;4.22;;;0.90;;
24650;SDS011;12783;48.824;8.662;2023-03-31T16:50:51;6.03;;;1.67;;
24650;SDS011;12783;48.824;8.662;2023-03-31T16:53:20;3.95;;;1.50;;
24650;SDS011;12783;48.824;8.662;2023-03-31T16:55:49;6.60;;;1.90;;
24650;SDS011;12783;48.824;8.662;2023-03-31T16:58:15;4.13;;;1.55;;
24650;SDS011;12783;48.824;8.662;2023-03-31T17:00:43;5.15;;;2.00;;
24650;SDS011;12783;48.824;8.662;2023-03-31T17:03:11;3.25;;;0.80;;
24650;SDS011;12783;48.824;8.662;2023-03-31T17:05:40;4.95;;;1.40;;
24650;SDS011;12783;48.824;8.662;2023-03-31T17:08:09;5.07;;;1.73;;
24650;SDS011;12783;48.824;8.662;2023-03-31T17:10:37;3.85;;;1.05;;
24650;SDS011;12783;48.824;8.662;2023-03-31T17:13:05;4.45;;;0.93;;
24650;SDS011;12783;48.824;8.662;2023-03-31T17:15:33;8.77;;;1.55;;
24650;SDS011;12783;48.824;8.662;2023-03-31T17:18:03;6.47;;;1.70;;
24650;SDS011;12783;48.824;8.662;2023-03-31T17:20:30;4.07;;;1.38;;
24650;SDS011;12783;48.824;8.662;2023-03-31T17:22:56;6.28;;;1.50;;
24650;SDS011;12783;48.824;8.662;2023-03-31T17:25:24;8.27;;;1.30;;
24650;SDS011;12783;48.824;8.662;2023-03-31T17:27:50;4.00;;;1.23;;
24650;SDS011;12783;48.824;8.662;2023-03-31T17:30:17;5.00;;;1.00;;
24650;SDS011;12783;48.824;8.662;2023-03-31T17:32:44;3.50;;;1.00;;
24650;SDS011;12783;48.824;8.662;2023-03-31T17:35:11;5.88;;;0.90;;
24650;SDS011;12783;48.824;8.662;2023-03-31T17:37:48;3.30;;;0.70;;
24650;SDS011;12783;48.824;8.662;2023-03-31T17:40:19;6.50;;;0.95;;
24650;SDS011;12783;48.824;8.662;2023-03-31T17:42:50;6.32;;;1.10;;
24650;SDS011;12783;48.824;8.662;2023-03-31T17:45:17;2.38;;;1.08;;
24650;SDS011;12783;48.824;8.662;2023-03-31T17:47:44;1.30;;;0.60;;
24650;SDS011;12783;48.824;8.662;2023-03-31T17:50:11;4.55;;;1.00;;
24650;SDS011;12783;48.824;8.662;2023-03-31T17:52:38;7.05;;;1.52;;
24650;SDS011;12783;48.824;8.662;2023-03-31T17:55:06;2.55;;;0.80;;
24650;SDS011;12783;48.824;8.662;2023-03-31T17:57:33;5.72;;;0.80;;
24650;SDS011;12783;48.824;8.662;2023-03-31T18:00:03;5.40;;;1.30;;